sensor_id;sensor_type;location;lat;lon;timestamp;temperature;humidity
29551;DHT22;16488;52.396;10.696;2023-08-07T00:01:51;16.20;99.90
29551;DHT22;16488;52.396;10.696;2023-08-07T00:04:17;16.20;99.90
29551;DHT22;16488;52.396;10.696;2023-08-07T00:06:42;16.20;99.90
29551;DHT22;16488;52.396;10.696;2023-08-07T00:09:08;16.20;99.90
29551;DHT22;16488;52.396;10.696;2023-08-07T00:11:34;16.20;99.90
29551;DHT22;16488;52.396;10.696;2023-08-07T00:13:59;16.10;99.90
29551;DHT22;16488;52.396;10.696;2023-08-07T00:16:26;16.10;99.90
29551;DHT22;16488;52.396;10.696;2023-08-07T00:18:51;16.10;99.90
29551;DHT22;16488;52.396;10.696;2023-08-07T00:21:21;16.10;99.90
29551;DHT22;16488;52.396;10.696;2023-08-07T00:23:47;16.10;99.90
29551;DHT22;16488;52.396;10.696;2023-08-07T00:26:12;16.00;99.90
29551;DHT22;16488;52.396;10.696;2023-08-07T00:28:38;16.00;99.90
29551;DHT22;16488;52.396;10.696;2023-08-07T00:31:04;15.90;99.90
29551;DHT22;16488;52.396;10.696;2023-08-07T00:33:29;15.90;99.90
29551;DHT22;16488;52.396;10.696;2023-08-07T00:35:55;15.90;99.90
29551;DHT22;16488;52.396;10.696;2023-08-07T00:38:20;15.90;99.90
29551;DHT22;16488;52.396;10.696;2023-08-07T00:40:46;16.00;99.90
29551;DHT22;16488;52.396;10.696;2023-08-07T00:43:11;15.90;99.90
29551;DHT22;16488;52.396;10.696;2023-08-07T00:45:47;15.90;99.90
29551;DHT22;16488;52.396;10.696;2023-08-07T00:48:13;15.90;99.90
29551;DHT22;16488;52.396;10.696;2023-08-07T00:50:41;15.90;99.90
29551;DHT22;16488;52.396;10.696;2023-08-07T00:53:08;15.80;99.90
29551;DHT22;16488;52.396;10.696;2023-08-07T00:55:35;15.80;99.90
29551;DHT22;16488;52.396;10.696;2023-08-07T00:58:00;15.80;99.90
29551;DHT22;16488;52.396;10.696;2023-08-07T01:00:28;15.80;99.90
29551;DHT22;16488;52.396;10.696;2023-08-07T01:02:55;15.90;99.90
29551;DHT22;16488;52.396;10.696;2023-08-07T01:05:22;15.90;99.90
29551;DHT22;16488;52.396;10.696;2023-08-07T01:07:48;15.80;99.90
29551;DHT22;16488;52.396;10.696;2023-08-07T01:10:17;15.80;99.90
29551;DHT22;16488;52.396;10.696;2023-08-07T01:12:50;15.80;99.90
29551;DHT22;16488;52.396;10.696;2023-08-07T01:15:23;15.80;99.90
29551;DHT22;16488;52.396;10.696;2023-08-07T01:17:52;15.70;99.90
29551;DHT22;16488;52.396;10.696;2023-08-07T01:20:19;15.80;99.90
29551;DHT22;16488;52.396;10.696;2023-08-07T01:22:45;15.70;99.90
29551;DHT22;16488;52.396;10.696;2023-08-07T01:25:10;15.80;99.90
29551;DHT22;16488;52.396;10.696;2023-08-07T01:27:37;15.70;99.90
29551;DHT22;16488;52.396;10.696;2023-08-07T01:32:58;15.60;99.90
29551;DHT22;16488;52.396;10.696;2023-08-07T01:35:27;15.50;99.90
29551;DHT22;16488;52.396;10.696;2023-08-07T01:37:56;15.40;99.90
29551;DHT22;16488;52.396;10.696;2023-08-07T01:40:22;15.50;99.90
29551;DHT22;16488;52.396;10.696;2023-08-07T01:42:49;15.40;99.90
29551;DHT22;16488;52.396;10.696;2023-08-07T01:45:25;15.40;99.90
29551;DHT22;16488;52.396;10.696;2023-08-07T01:47:51;15.30;99.90
29551;DHT22;16488;52.396;10.696;2023-08-07T01:50:18;15.30;99.90
29551;DHT22;16488;52.396;10.696;2023-08-07T01:52:44;15.20;99.90
29551;DHT22;16488;52.396;10.696;2023-08-07T01:55:10;15.20;99.90
29551;DHT22;16488;52.396;10.696;2023-08-07T01:57:35;15.20;99.90
29551;DHT22;16488;52.396;10.696;2023-08-07T02:00:01;15.20;99.90
29551;DHT22;16488;52.396;10.696;2023-08-07T02:02:29;15.20;99.90
29551;DHT22;16488;52.396;10.696;2023-08-07T02:04:54;15.10;99.90
29551;DHT22;16488;52.396;10.696;2023-08-07T02:07:20;15.10;99.90
29551;DHT22;16488;52.396;10.696;2023-08-07T02:09:45;15.10;99.90
29551;DHT22;16488;52.396;10.696;2023-08-07T02:12:11;15.10;99.90
29551;DHT22;16488;52.396;10.696;2023-08-07T02:14:36;15.10;99.90
29551;DHT22;16488;52.396;10.696;2023-08-07T02:17:02;15.10;99.90
29551;DHT22;16488;52.396;10.696;2023-08-07T02:19:28;15.10;99.90
29551;DHT22;16488;52.396;10.696;2023-08-07T02:21:53;15.00;99.90
29551;DHT22;16488;52.396;10.696;2023-08-07T02:24:19;15.10;99.90
29551;DHT22;16488;52.396;10.696;2023-08-07T02:26:45;15.10;99.90
29551;DHT22;16488;52.396;10.696;2023-08-07T02:29:11;15.20;99.90
29551;DHT22;16488;52.396;10.696;2023-08-07T02:31:36;15.20;99.90
29551;DHT22;16488;52.396;10.696;2023-08-07T02:34:02;15.20;99.90
29551;DHT22;16488;52.396;10.696;2023-08-07T02:36:27;15.20;99.90
29551;DHT22;16488;52.396;10.696;2023-08-07T02:38:53;15.20;99.90
29551;DHT22;16488;52.396;10.696;2023-08-07T02:41:19;15.30;99.90
29551;DHT22;16488;52.396;10.696;2023-08-07T02:43:44;15.30;99.90
29551;DHT22;16488;52.396;10.696;2023-08-07T02:46:10;15.30;99.90
29551;DHT22;16488;52.396;10.696;2023-08-07T02:48:36;15.30;99.90
29551;DHT22;16488;52.396;10.696;2023-08-07T02:51:01;15.40;99.90
29551;DHT22;16488;52.396;10.696;2023-08-07T02:53:27;15.40;99.90
29551;DHT22;16488;52.396;10.696;2023-08-07T02:55:52;15.40;99.90
29551;DHT22;16488;52.396;10.696;2023-08-07T02:58:18;15.40;99.90
29551;DHT22;16488;52.396;10.696;2023-08-07T03:00:44;15.50;99.90
29551;DHT22;16488;52.396;10.696;2023-08-07T03:03:09;15.40;99.90
29551;DHT22;16488;52.396;10.696;2023-08-07T03:05:35;15.40;99.90
29551;DHT22;16488;52.396;10.696;2023-08-07T03:08:01;15.40;99.90
29551;DHT22;16488;52.396;10.696;2023-08-07T03:10:26;15.40;99.90
29551;DHT22;16488;52.396;10.696;2023-08-07T03:12:52;15.50;99.90
29551;DHT22;16488;52.396;10.696;2023-08-07T03:15:17;15.50;99.90
29551;DHT22;16488;52.396;10.696;2023-08-07T03:17:44;15.50;99.90
29551;DHT22;16488;52.396;10.696;2023-08-07T03:20:10;15.50;99.90
29551;DHT22;16488;52.396;10.696;2023-08-07T03:22:36;15.60;99.90
29551;DHT22;16488;52.396;10.696;2023-08-07T03:25:02;15.50;99.90
29551;DHT22;16488;52.396;10.696;2023-08-07T03:27:28;15.50;99.90
29551;DHT22;16488;52.396;10.696;2023-08-07T03:29:53;15.50;99.90
29551;DHT22;16488;52.396;10.696;2023-08-07T03:32:19;15.60;99.90
29551;DHT22;16488;52.396;10.696;2023-08-07T03:34:45;15.60;99.90
29551;DHT22;16488;52.396;10.696;2023-08-07T03:37:10;15.60;99.90
29551;DHT22;16488;52.396;10.696;2023-08-07T03:39:36;15.60;99.90
29551;DHT22;16488;52.396;10.696;2023-08-07T03:42:01;15.60;99.90
29551;DHT22;16488;52.396;10.696;2023-08-07T03:44:27;15.50;99.90
29551;DHT22;16488;52.396;10.696;2023-08-07T03:46:52;15.50;99.90
29551;DHT22;16488;52.396;10.696;2023-08-07T03:49:21;15.50;99.90
29551;DHT22;16488;52.396;10.696;2023-08-07T03:51:46;15.60;99.90
29551;DHT22;16488;52.396;10.696;2023-08-07T03:54:12;15.50;99.90
29551;DHT22;16488;52.396;10.696;2023-08-07T03:56:38;15.50;99.90
29551;DHT22;16488;52.396;10.696;2023-08-07T03:59:03;15.50;99.90
29551;DHT22;16488;52.396;10.696;2023-08-07T04:01:29;15.50;99.90
29551;DHT22;16488;52.396;10.696;2023-08-07T04:03:54;15.50;99.90
29551;DHT22;16488;52.396;10.696;2023-08-07T04:06:20;15.40;99.90
29551;DHT22;16488;52.396;10.696;2023-08-07T04:08:46;15.40;99.90
29551;DHT22;16488;52.396;10.696;2023-08-07T04:11:12;15.40;99.90
29551;DHT22;16488;52.396;10.696;2023-08-07T04:13:38;15.40;99.90
29551;DHT22;16488;52.396;10.696;2023-08-07T04:16:04;15.40;99.90
29551;DHT22;16488;52.396;10.696;2023-08-07T04:18:30;15.40;99.90
29551;DHT22;16488;52.396;10.696;2023-08-07T04:20:57;15.40;99.90
29551;DHT22;16488;52.396;10.696;2023-08-07T04:23:23;15.40;99.90
29551;DHT22;16488;52.396;10.696;2023-08-07T04:25:50;15.40;99.90
29551;DHT22;16488;52.396;10.696;2023-08-07T04:28:16;15.40;99.90
29551;DHT22;16488;52.396;10.696;2023-08-07T04:30:43;15.40;99.90
29551;DHT22;16488;52.396;10.696;2023-08-07T04:33:08;15.50;99.90
29551;DHT22;16488;52.396;10.696;2023-08-07T04:35:34;15.40;99.90
29551;DHT22;16488;52.396;10.696;2023-08-07T04:38:01;15.40;99.90
29551;DHT22;16488;52.396;10.696;2023-08-07T04:40:27;15.40;99.90
29551;DHT22;16488;52.396;10.696;2023-08-07T04:42:54;15.50;99.90
29551;DHT22;16488;52.396;10.696;2023-08-07T04:45:19;15.40;99.90
29551;DHT22;16488;52.396;10.696;2023-08-07T04:47:45;15.40;99.90
29551;DHT22;16488;52.396;10.696;2023-08-07T04:50:11;15.40;99.90
29551;DHT22;16488;52.396;10.696;2023-08-07T04:52:37;15.40;99.90
29551;DHT22;16488;52.396;10.696;2023-08-07T04:55:02;15.40;99.90
29551;DHT22;16488;52.396;10.696;2023-08-07T04:57:28;15.40;99.90
29551;DHT22;16488;52.396;10.696;2023-08-07T04:59:53;15.40;99.90
29551;DHT22;16488;52.396;10.696;2023-08-07T05:02:20;15.50;99.90
29551;DHT22;16488;52.396;10.696;2023-08-07T05:04:45;15.40;99.90
29551;DHT22;16488;52.396;10.696;2023-08-07T05:07:11;15.40;99.90
29551;DHT22;16488;52.396;10.696;2023-08-07T05:09:38;15.40;99.90
29551;DHT22;16488;52.396;10.696;2023-08-07T05:12:04;15.40;99.90
29551;DHT22;16488;52.396;10.696;2023-08-07T05:14:29;15.30;99.90
29551;DHT22;16488;52.396;10.696;2023-08-07T05:16:55;15.30;99.90
29551;DHT22;16488;52.396;10.696;2023-08-07T05:19:21;15.20;99.90
29551;DHT22;16488;52.396;10.696;2023-08-07T05:21:50;15.20;99.90
29551;DHT22;16488;52.396;10.696;2023-08-07T05:24:19;15.20;99.90
29551;DHT22;16488;52.396;10.696;2023-08-07T05:26:45;15.20;99.90
29551;DHT22;16488;52.396;10.696;2023-08-07T05:29:10;15.10;99.90
29551;DHT22;16488;52.396;10.696;2023-08-07T05:31:36;15.10;99.90
29551;DHT22;16488;52.396;10.696;2023-08-07T05:34:02;15.10;99.90
29551;DHT22;16488;52.396;10.696;2023-08-07T05:36:28;15.00;99.90
29551;DHT22;16488;52.396;10.696;2023-08-07T05:38:55;15.00;99.90
29551;DHT22;16488;52.396;10.696;2023-08-07T05:41:21;15.00;99.90
29551;DHT22;16488;52.396;10.696;2023-08-07T05:43:46;14.90;99.90
29551;DHT22;16488;52.396;10.696;2023-08-07T05:46:12;15.00;99.90
29551;DHT22;16488;52.396;10.696;2023-08-07T05:48:37;15.00;99.90
29551;DHT22;16488;52.396;10.696;2023-08-07T05:51:03;15.00;99.90
29551;DHT22;16488;52.396;10.696;2023-08-07T05:53:29;15.10;99.90
29551;DHT22;16488;52.396;10.696;2023-08-07T05:55:55;15.00;99.90
29551;DHT22;16488;52.396;10.696;2023-08-07T05:58:22;15.10;99.90
29551;DHT22;16488;52.396;10.696;2023-08-07T06:00:47;15.10;99.90
29551;DHT22;16488;52.396;10.696;2023-08-07T06:03:13;15.10;99.90
29551;DHT22;16488;52.396;10.696;2023-08-07T06:05:39;15.00;99.90
29551;DHT22;16488;52.396;10.696;2023-08-07T06:08:04;15.10;99.90
29551;DHT22;16488;52.396;10.696;2023-08-07T06:10:30;15.20;99.90
29551;DHT22;16488;52.396;10.696;2023-08-07T06:12:55;15.20;99.90
29551;DHT22;16488;52.396;10.696;2023-08-07T06:15:21;15.20;99.90
29551;DHT22;16488;52.396;10.696;2023-08-07T06:17:47;15.30;99.90
29551;DHT22;16488;52.396;10.696;2023-08-07T06:20:12;15.30;99.90
29551;DHT22;16488;52.396;10.696;2023-08-07T06:22:40;15.30;99.90
29551;DHT22;16488;52.396;10.696;2023-08-07T06:25:06;15.30;99.90
29551;DHT22;16488;52.396;10.696;2023-08-07T06:27:32;15.20;99.90
29551;DHT22;16488;52.396;10.696;2023-08-07T06:29:57;15.10;99.90
29551;DHT22;16488;52.396;10.696;2023-08-07T06:32:25;15.00;99.90
29551;DHT22;16488;52.396;10.696;2023-08-07T06:34:50;14.90;99.90
29551;DHT22;16488;52.396;10.696;2023-08-07T06:37:16;14.80;99.90
29551;DHT22;16488;52.396;10.696;2023-08-07T06:39:45;14.70;99.90
29551;DHT22;16488;52.396;10.696;2023-08-07T06:42:12;14.60;99.90
29551;DHT22;16488;52.396;10.696;2023-08-07T06:44:37;14.50;99.90
29551;DHT22;16488;52.396;10.696;2023-08-07T06:47:03;14.50;99.90
29551;DHT22;16488;52.396;10.696;2023-08-07T06:49:29;14.40;99.90
29551;DHT22;16488;52.396;10.696;2023-08-07T06:51:57;14.50;99.90
29551;DHT22;16488;52.396;10.696;2023-08-07T06:54:22;14.50;99.90
29551;DHT22;16488;52.396;10.696;2023-08-07T06:56:48;14.50;99.90
29551;DHT22;16488;52.396;10.696;2023-08-07T06:59:14;14.50;99.90
29551;DHT22;16488;52.396;10.696;2023-08-07T07:01:39;14.50;99.90
29551;DHT22;16488;52.396;10.696;2023-08-07T07:04:05;14.60;99.90
29551;DHT22;16488;52.396;10.696;2023-08-07T07:06:30;14.50;99.90
29551;DHT22;16488;52.396;10.696;2023-08-07T07:08:56;14.50;99.90
29551;DHT22;16488;52.396;10.696;2023-08-07T07:11:22;14.60;99.90
29551;DHT22;16488;52.396;10.696;2023-08-07T07:13:50;14.60;99.90
29551;DHT22;16488;52.396;10.696;2023-08-07T07:16:17;14.60;99.90
29551;DHT22;16488;52.396;10.696;2023-08-07T07:18:43;14.70;99.90
29551;DHT22;16488;52.396;10.696;2023-08-07T07:21:09;14.70;99.90
29551;DHT22;16488;52.396;10.696;2023-08-07T07:23:34;14.70;99.90
29551;DHT22;16488;52.396;10.696;2023-08-07T07:26:00;14.80;99.90
29551;DHT22;16488;52.396;10.696;2023-08-07T07:28:25;14.80;99.90
29551;DHT22;16488;52.396;10.696;2023-08-07T07:30:51;14.90;99.90
29551;DHT22;16488;52.396;10.696;2023-08-07T07:33:17;14.80;99.90
29551;DHT22;16488;52.396;10.696;2023-08-07T07:35:42;14.90;99.90
29551;DHT22;16488;52.396;10.696;2023-08-07T07:38:09;14.80;99.90
29551;DHT22;16488;52.396;10.696;2023-08-07T07:40:35;14.80;99.90
29551;DHT22;16488;52.396;10.696;2023-08-07T07:43:01;14.90;99.90
29551;DHT22;16488;52.396;10.696;2023-08-07T07:45:27;14.90;99.90
29551;DHT22;16488;52.396;10.696;2023-08-07T07:47:53;15.00;99.90
29551;DHT22;16488;52.396;10.696;2023-08-07T07:50:18;15.10;99.90
29551;DHT22;16488;52.396;10.696;2023-08-07T07:52:44;15.20;99.90
29551;DHT22;16488;52.396;10.696;2023-08-07T07:55:10;15.30;99.90
29551;DHT22;16488;52.396;10.696;2023-08-07T07:57:36;15.40;99.90
29551;DHT22;16488;52.396;10.696;2023-08-07T08:00:01;15.50;99.90
29551;DHT22;16488;52.396;10.696;2023-08-07T08:02:29;15.50;99.90
29551;DHT22;16488;52.396;10.696;2023-08-07T08:04:56;15.60;99.90
29551;DHT22;16488;52.396;10.696;2023-08-07T08:07:21;15.60;99.90
29551;DHT22;16488;52.396;10.696;2023-08-07T08:09:47;15.60;99.90
29551;DHT22;16488;52.396;10.696;2023-08-07T08:12:13;15.50;99.90
29551;DHT22;16488;52.396;10.696;2023-08-07T08:14:39;15.60;99.90
29551;DHT22;16488;52.396;10.696;2023-08-07T08:17:04;15.70;99.90
29551;DHT22;16488;52.396;10.696;2023-08-07T08:19:30;15.70;99.90
29551;DHT22;16488;52.396;10.696;2023-08-07T08:21:56;15.70;99.90
29551;DHT22;16488;52.396;10.696;2023-08-07T08:24:21;15.60;99.90
29551;DHT22;16488;52.396;10.696;2023-08-07T08:26:47;15.70;99.90
29551;DHT22;16488;52.396;10.696;2023-08-07T08:46:36;15.80;99.90
29551;DHT22;16488;52.396;10.696;2023-08-07T08:49:04;16.20;99.90
29551;DHT22;16488;52.396;10.696;2023-08-07T08:51:30;16.30;99.90
29551;DHT22;16488;52.396;10.696;2023-08-07T08:53:56;16.20;99.90
29551;DHT22;16488;52.396;10.696;2023-08-07T08:56:23;16.40;99.90
29551;DHT22;16488;52.396;10.696;2023-08-07T08:58:50;16.30;99.90
29551;DHT22;16488;52.396;10.696;2023-08-07T09:01:18;16.40;99.90
29551;DHT22;16488;52.396;10.696;2023-08-07T09:03:47;16.40;99.90
29551;DHT22;16488;52.396;10.696;2023-08-07T09:06:13;16.50;99.90
29551;DHT22;16488;52.396;10.696;2023-08-07T09:08:42;16.60;99.90
29551;DHT22;16488;52.396;10.696;2023-08-07T09:11:10;16.70;99.90
29551;DHT22;16488;52.396;10.696;2023-08-07T09:13:37;16.80;99.90
29551;DHT22;16488;52.396;10.696;2023-08-07T09:16:04;17.00;99.90
29551;DHT22;16488;52.396;10.696;2023-08-07T09:18:33;17.10;99.90
29551;DHT22;16488;52.396;10.696;2023-08-07T09:21:00;17.30;99.90
29551;DHT22;16488;52.396;10.696;2023-08-07T09:23:26;17.30;99.90
29551;DHT22;16488;52.396;10.696;2023-08-07T09:26:04;17.30;99.90
29551;DHT22;16488;52.396;10.696;2023-08-07T09:28:32;17.30;99.90
29551;DHT22;16488;52.396;10.696;2023-08-07T09:30:59;17.20;99.90
29551;DHT22;16488;52.396;10.696;2023-08-07T09:33:28;17.20;99.90
29551;DHT22;16488;52.396;10.696;2023-08-07T09:35:58;16.90;99.90
29551;DHT22;16488;52.396;10.696;2023-08-07T09:38:28;16.50;99.90
29551;DHT22;16488;52.396;10.696;2023-08-07T09:40:57;16.20;99.90
29551;DHT22;16488;52.396;10.696;2023-08-07T09:43:23;16.00;99.90
29551;DHT22;16488;52.396;10.696;2023-08-07T09:45:49;15.90;99.90
29551;DHT22;16488;52.396;10.696;2023-08-07T09:48:24;15.80;99.90
29551;DHT22;16488;52.396;10.696;2023-08-07T09:50:50;15.70;99.90
29551;DHT22;16488;52.396;10.696;2023-08-07T09:53:16;15.60;99.90
29551;DHT22;16488;52.396;10.696;2023-08-07T09:55:42;15.60;99.90
29551;DHT22;16488;52.396;10.696;2023-08-07T09:58:08;15.50;99.90
29551;DHT22;16488;52.396;10.696;2023-08-07T10:00:37;15.50;99.90
29551;DHT22;16488;52.396;10.696;2023-08-07T10:03:03;15.50;99.90
29551;DHT22;16488;52.396;10.696;2023-08-07T10:05:30;15.50;99.90
29551;DHT22;16488;52.396;10.696;2023-08-07T10:07:57;15.50;99.90
29551;DHT22;16488;52.396;10.696;2023-08-07T10:10:23;15.50;99.90
29551;DHT22;16488;52.396;10.696;2023-08-07T10:12:52;15.60;99.90
29551;DHT22;16488;52.396;10.696;2023-08-07T10:15:19;15.80;99.90
29551;DHT22;16488;52.396;10.696;2023-08-07T10:17:45;16.00;99.90
29551;DHT22;16488;52.396;10.696;2023-08-07T10:20:12;16.10;99.90
29551;DHT22;16488;52.396;10.696;2023-08-07T10:22:38;16.20;99.90
29551;DHT22;16488;52.396;10.696;2023-08-07T10:25:04;16.30;99.90
29551;DHT22;16488;52.396;10.696;2023-08-07T10:27:33;16.50;99.90
29551;DHT22;16488;52.396;10.696;2023-08-07T10:30:02;16.60;99.90
29551;DHT22;16488;52.396;10.696;2023-08-07T10:32:30;16.70;99.90
29551;DHT22;16488;52.396;10.696;2023-08-07T10:34:56;16.80;99.90
29551;DHT22;16488;52.396;10.696;2023-08-07T10:37:43;17.00;99.90
29551;DHT22;16488;52.396;10.696;2023-08-07T10:40:11;17.10;99.90
29551;DHT22;16488;52.396;10.696;2023-08-07T10:43:11;17.20;99.90
29551;DHT22;16488;52.396;10.696;2023-08-07T10:45:37;17.20;99.90
29551;DHT22;16488;52.396;10.696;2023-08-07T10:50:46;17.50;99.90
29551;DHT22;16488;52.396;10.696;2023-08-07T10:53:32;17.60;99.90
29551;DHT22;16488;52.396;10.696;2023-08-07T10:56:02;17.60;99.90
29551;DHT22;16488;52.396;10.696;2023-08-07T10:58:33;17.70;99.90
29551;DHT22;16488;52.396;10.696;2023-08-07T11:01:18;17.70;99.90
29551;DHT22;16488;52.396;10.696;2023-08-07T11:04:05;17.70;99.90
29551;DHT22;16488;52.396;10.696;2023-08-07T11:06:35;17.70;99.90
29551;DHT22;16488;52.396;10.696;2023-08-07T11:09:02;17.60;99.90
29551;DHT22;16488;52.396;10.696;2023-08-07T11:11:29;17.60;99.90
29551;DHT22;16488;52.396;10.696;2023-08-07T11:13:55;17.60;99.90
29551;DHT22;16488;52.396;10.696;2023-08-07T11:16:21;17.60;99.90
29551;DHT22;16488;52.396;10.696;2023-08-07T11:18:47;17.60;99.90
29551;DHT22;16488;52.396;10.696;2023-08-07T11:21:14;17.60;99.90
29551;DHT22;16488;52.396;10.696;2023-08-07T11:23:40;17.50;99.90
29551;DHT22;16488;52.396;10.696;2023-08-07T11:26:07;17.50;99.90
29551;DHT22;16488;52.396;10.696;2023-08-07T11:28:33;17.40;99.90
29551;DHT22;16488;52.396;10.696;2023-08-07T11:31:00;17.20;99.90
29551;DHT22;16488;52.396;10.696;2023-08-07T11:33:27;17.10;99.90
29551;DHT22;16488;52.396;10.696;2023-08-07T11:35:54;16.70;99.90
29551;DHT22;16488;52.396;10.696;2023-08-07T11:38:40;16.20;99.90
29551;DHT22;16488;52.396;10.696;2023-08-07T11:41:09;15.70;99.90
29551;DHT22;16488;52.396;10.696;2023-08-07T11:43:35;15.30;99.90
29551;DHT22;16488;52.396;10.696;2023-08-07T11:46:05;15.20;99.90
29551;DHT22;16488;52.396;10.696;2023-08-07T11:48:36;15.10;99.90
29551;DHT22;16488;52.396;10.696;2023-08-07T11:51:03;15.10;99.90
29551;DHT22;16488;52.396;10.696;2023-08-07T11:53:31;15.20;99.90
29551;DHT22;16488;52.396;10.696;2023-08-07T11:56:01;15.40;99.90
29551;DHT22;16488;52.396;10.696;2023-08-07T11:58:28;15.70;99.90
29551;DHT22;16488;52.396;10.696;2023-08-07T12:00:58;15.90;99.90
29551;DHT22;16488;52.396;10.696;2023-08-07T12:03:35;16.10;99.90
29551;DHT22;16488;52.396;10.696;2023-08-07T12:06:04;16.30;99.90
29551;DHT22;16488;52.396;10.696;2023-08-07T12:08:38;16.60;99.90
29551;DHT22;16488;52.396;10.696;2023-08-07T12:11:06;16.80;99.90
29551;DHT22;16488;52.396;10.696;2023-08-07T12:13:32;16.80;99.90
29551;DHT22;16488;52.396;10.696;2023-08-07T12:16:01;16.90;99.90
29551;DHT22;16488;52.396;10.696;2023-08-07T12:18:29;17.00;99.90
29551;DHT22;16488;52.396;10.696;2023-08-07T12:21:07;17.00;99.90
29551;DHT22;16488;52.396;10.696;2023-08-07T12:23:34;17.10;99.90
29551;DHT22;16488;52.396;10.696;2023-08-07T12:26:00;17.30;99.90
29551;DHT22;16488;52.396;10.696;2023-08-07T12:28:26;17.30;99.90
29551;DHT22;16488;52.396;10.696;2023-08-07T12:30:52;17.30;99.90
29551;DHT22;16488;52.396;10.696;2023-08-07T12:33:18;17.10;99.90
29551;DHT22;16488;52.396;10.696;2023-08-07T12:35:44;16.90;99.90
29551;DHT22;16488;52.396;10.696;2023-08-07T12:38:10;16.90;99.90
29551;DHT22;16488;52.396;10.696;2023-08-07T12:40:36;17.00;99.90
29551;DHT22;16488;52.396;10.696;2023-08-07T12:43:06;17.00;99.90
29551;DHT22;16488;52.396;10.696;2023-08-07T12:45:32;17.00;99.90
29551;DHT22;16488;52.396;10.696;2023-08-07T12:47:58;16.90;99.90
29551;DHT22;16488;52.396;10.696;2023-08-07T12:50:24;16.80;99.90
29551;DHT22;16488;52.396;10.696;2023-08-07T12:52:50;16.90;99.90
29551;DHT22;16488;52.396;10.696;2023-08-07T12:55:16;17.00;99.90
29551;DHT22;16488;52.396;10.696;2023-08-07T12:57:42;17.10;99.90
29551;DHT22;16488;52.396;10.696;2023-08-07T13:00:12;17.00;99.90
29551;DHT22;16488;52.396;10.696;2023-08-07T13:02:44;16.80;99.90
29551;DHT22;16488;52.396;10.696;2023-08-07T13:05:10;16.50;99.90
29551;DHT22;16488;52.396;10.696;2023-08-07T13:07:37;16.30;99.90
29551;DHT22;16488;52.396;10.696;2023-08-07T13:10:05;16.20;99.90
29551;DHT22;16488;52.396;10.696;2023-08-07T13:12:34;16.30;99.90
29551;DHT22;16488;52.396;10.696;2023-08-07T13:15:00;16.50;99.90
29551;DHT22;16488;52.396;10.696;2023-08-07T13:17:26;16.60;99.90
29551;DHT22;16488;52.396;10.696;2023-08-07T13:19:51;16.70;99.90
29551;DHT22;16488;52.396;10.696;2023-08-07T13:22:17;16.70;99.90
29551;DHT22;16488;52.396;10.696;2023-08-07T13:24:43;16.90;99.90
29551;DHT22;16488;52.396;10.696;2023-08-07T13:27:08;17.10;99.90
29551;DHT22;16488;52.396;10.696;2023-08-07T13:29:34;17.20;99.90
29551;DHT22;16488;52.396;10.696;2023-08-07T13:32:01;17.40;99.90
29551;DHT22;16488;52.396;10.696;2023-08-07T13:34:29;17.50;99.90
29551;DHT22;16488;52.396;10.696;2023-08-07T13:36:54;17.60;99.90
29551;DHT22;16488;52.396;10.696;2023-08-07T13:39:20;17.40;99.90
29551;DHT22;16488;52.396;10.696;2023-08-07T13:41:46;17.30;99.90
29551;DHT22;16488;52.396;10.696;2023-08-07T13:44:12;17.20;99.90
29551;DHT22;16488;52.396;10.696;2023-08-07T13:46:38;17.10;99.90
29551;DHT22;16488;52.396;10.696;2023-08-07T13:49:03;17.00;99.90
29551;DHT22;16488;52.396;10.696;2023-08-07T13:51:29;16.90;99.90
29551;DHT22;16488;52.396;10.696;2023-08-07T13:53:54;16.80;99.90
29551;DHT22;16488;52.396;10.696;2023-08-07T13:56:20;16.80;99.90
29551;DHT22;16488;52.396;10.696;2023-08-07T13:58:46;16.90;99.90
29551;DHT22;16488;52.396;10.696;2023-08-07T14:01:12;17.10;99.90
29551;DHT22;16488;52.396;10.696;2023-08-07T14:03:37;17.20;99.90
29551;DHT22;16488;52.396;10.696;2023-08-07T14:06:03;17.40;99.90
29551;DHT22;16488;52.396;10.696;2023-08-07T14:08:29;17.60;99.90
29551;DHT22;16488;52.396;10.696;2023-08-07T14:10:54;17.80;99.90
29551;DHT22;16488;52.396;10.696;2023-08-07T14:13:20;18.10;99.90
29551;DHT22;16488;52.396;10.696;2023-08-07T14:15:46;18.40;99.90
29551;DHT22;16488;52.396;10.696;2023-08-07T14:18:12;18.50;99.90
29551;DHT22;16488;52.396;10.696;2023-08-07T14:20:40;18.50;99.90
29551;DHT22;16488;52.396;10.696;2023-08-07T14:23:06;18.50;99.90
29551;DHT22;16488;52.396;10.696;2023-08-07T14:25:31;18.40;99.90
29551;DHT22;16488;52.396;10.696;2023-08-07T14:27:57;18.60;99.90
29551;DHT22;16488;52.396;10.696;2023-08-07T14:30:23;18.60;99.90
29551;DHT22;16488;52.396;10.696;2023-08-07T14:32:49;18.50;99.90
29551;DHT22;16488;52.396;10.696;2023-08-07T14:35:15;18.40;99.90
29551;DHT22;16488;52.396;10.696;2023-08-07T14:37:41;18.20;99.90
29551;DHT22;16488;52.396;10.696;2023-08-07T14:40:07;18.10;99.90
29551;DHT22;16488;52.396;10.696;2023-08-07T14:42:33;17.90;99.90
29551;DHT22;16488;52.396;10.696;2023-08-07T14:44:59;17.90;99.90
29551;DHT22;16488;52.396;10.696;2023-08-07T14:47:25;17.80;99.90
29551;DHT22;16488;52.396;10.696;2023-08-07T14:49:51;17.70;99.90
29551;DHT22;16488;52.396;10.696;2023-08-07T14:52:16;17.60;99.90
29551;DHT22;16488;52.396;10.696;2023-08-07T14:54:42;17.60;99.90
29551;DHT22;16488;52.396;10.696;2023-08-07T14:57:08;17.50;99.90
29551;DHT22;16488;52.396;10.696;2023-08-07T14:59:34;17.40;99.90
29551;DHT22;16488;52.396;10.696;2023-08-07T15:02:00;17.30;99.90
29551;DHT22;16488;52.396;10.696;2023-08-07T15:04:25;16.90;99.90
29551;DHT22;16488;52.396;10.696;2023-08-07T15:06:51;16.50;99.90
29551;DHT22;16488;52.396;10.696;2023-08-07T15:09:17;16.40;99.90
29551;DHT22;16488;52.396;10.696;2023-08-07T15:11:45;16.30;99.90
29551;DHT22;16488;52.396;10.696;2023-08-07T15:14:11;16.40;99.90
29551;DHT22;16488;52.396;10.696;2023-08-07T15:16:36;16.60;99.90
29551;DHT22;16488;52.396;10.696;2023-08-07T15:19:02;16.90;99.90
29551;DHT22;16488;52.396;10.696;2023-08-07T15:21:30;17.20;99.90
29551;DHT22;16488;52.396;10.696;2023-08-07T15:23:55;17.40;99.90
29551;DHT22;16488;52.396;10.696;2023-08-07T15:26:21;17.50;99.90
29551;DHT22;16488;52.396;10.696;2023-08-07T15:28:46;17.60;99.90
29551;DHT22;16488;52.396;10.696;2023-08-07T15:31:12;17.70;99.90
29551;DHT22;16488;52.396;10.696;2023-08-07T15:33:38;17.80;99.90
29551;DHT22;16488;52.396;10.696;2023-08-07T15:36:03;17.90;99.90